createdAt,value
2017-11-05T00:00:35.002Z,12.70
2017-11-05T00:03:02.589Z,12.70
2017-11-05T00:05:30.229Z,12.70
2017-11-05T00:07:57.826Z,12.70
2017-11-05T00:10:25.413Z,12.70
2017-11-05T00:12:53.049Z,12.70
2017-11-05T00:15:20.638Z,12.70
2017-11-05T00:17:48.225Z,12.70
2017-11-05T00:20:15.863Z,12.70
2017-11-05T00:22:43.460Z,12.70
2017-11-05T00:25:11.068Z,12.70
2017-11-05T00:27:38.792Z,12.70
2017-11-05T00:30:06.380Z,12.70
2017-11-05T00:32:34.055Z,12.70
2017-11-05T00:35:01.689Z,12.60
2017-11-05T00:37:30.035Z,12.60
2017-11-05T00:39:57.690Z,12.60
2017-11-05T00:42:25.513Z,12.60
2017-11-05T00:44:53.114Z,12.60
2017-11-05T00:47:20.703Z,12.60
2017-11-05T00:49:48.341Z,12.60
2017-11-05T00:52:16.692Z,12.50
2017-11-05T00:54:44.280Z,12.50
2017-11-05T00:57:11.908Z,12.50
2017-11-05T00:59:39.496Z,12.50
2017-11-05T01:02:07.270Z,12.50
2017-11-05T01:04:34.916Z,12.50
2017-11-05T01:07:02.504Z,12.60
2017-11-05T01:09:30.089Z,12.50
2017-11-05T01:11:57.730Z,12.50
2017-11-05T01:14:25.317Z,12.50
2017-11-05T01:16:52.905Z,12.50
2017-11-05T01:19:20.552Z,12.50
2017-11-05T01:21:48.136Z,12.50
2017-11-05T01:24:15.721Z,12.50
2017-11-05T01:26:45.720Z,12.60
2017-11-05T01:29:13.306Z,12.50
2017-11-05T01:31:40.893Z,12.60
2017-11-05T01:34:08.637Z,12.50
2017-11-05T01:36:36.338Z,12.50
2017-11-05T01:39:03.924Z,12.50
2017-11-05T01:41:31.564Z,12.50
2017-11-05T01:43:59.150Z,12.50
2017-11-05T01:46:26.725Z,12.50
2017-11-05T01:48:54.545Z,12.40
2017-11-05T01:51:22.174Z,12.40
2017-11-05T01:53:49.848Z,12.40
2017-11-05T01:56:17.493Z,12.40
2017-11-05T01:58:45.838Z,12.40
2017-11-05T02:01:13.420Z,12.40
2017-11-05T02:03:41.159Z,12.50
2017-11-05T02:06:08.789Z,12.50
2017-11-05T02:08:36.418Z,12.50
2017-11-05T02:11:04.053Z,12.50
2017-11-05T02:13:31.683Z,12.50
2017-11-05T02:16:00.772Z,12.50
2017-11-05T02:18:28.404Z,12.40
2017-11-05T02:20:55.987Z,12.50
2017-11-05T02:23:23.574Z,12.40
2017-11-05T02:25:51.217Z,12.40
2017-11-05T02:28:18.801Z,12.40
2017-11-05T02:30:46.400Z,12.40
2017-11-05T02:33:14.041Z,12.40
2017-11-05T02:35:41.628Z,12.40
2017-11-05T02:38:09.214Z,12.40
2017-11-05T02:40:36.851Z,12.30
2017-11-05T02:43:04.440Z,12.40
2017-11-05T02:45:32.032Z,12.30
2017-11-05T02:47:59.847Z,12.40
2017-11-05T02:50:27.434Z,12.30
2017-11-05T02:52:55.789Z,12.30
2017-11-05T02:55:23.585Z,12.30
2017-11-05T02:57:51.173Z,12.30
2017-11-05T03:00:19.533Z,12.20
2017-11-05T03:02:47.320Z,12.20
2017-11-05T03:05:14.911Z,12.20
2017-11-05T03:07:42.506Z,12.20
2017-11-05T03:10:10.300Z,12.20
2017-11-05T03:12:37.889Z,12.10
2017-11-05T03:15:05.482Z,12.10
2017-11-05T03:17:33.145Z,12.00
2017-11-05T03:20:00.733Z,12.00
2017-11-05T03:22:29.093Z,11.90
2017-11-05T03:24:56.723Z,11.90
2017-11-05T03:27:24.321Z,11.90
2017-11-05T03:29:51.904Z,11.90
2017-11-05T03:32:19.541Z,11.80
2017-11-05T03:34:47.120Z,11.80
2017-11-05T03:37:14.725Z,11.80
2017-11-05T03:39:42.383Z,11.80
2017-11-05T03:42:09.968Z,11.70
2017-11-05T03:44:37.552Z,11.70
2017-11-05T03:47:05.200Z,11.60
2017-11-05T03:49:32.789Z,11.60
2017-11-05T03:52:00.379Z,11.60
2017-11-05T03:54:28.066Z,11.50
2017-11-05T03:56:56.417Z,11.50
2017-11-05T03:59:23.993Z,11.50
2017-11-05T04:01:51.628Z,11.40
2017-11-05T04:04:19.216Z,11.40
2017-11-05T04:06:46.803Z,11.40
2017-11-05T04:09:14.440Z,11.30
2017-11-05T04:11:42.020Z,11.30
2017-11-05T04:14:09.616Z,11.30
2017-11-05T04:16:37.249Z,11.20
2017-11-05T04:19:05.603Z,11.30
2017-11-05T04:21:33.204Z,11.20
2017-11-05T04:24:01.784Z,11.20
2017-11-05T04:26:29.365Z,11.20
2017-11-05T04:28:57.713Z,11.20
2017-11-05T04:31:25.357Z,11.20
2017-11-05T04:33:52.945Z,11.20
2017-11-05T04:36:20.533Z,11.20
2017-11-05T04:38:48.176Z,11.10
2017-11-05T04:41:15.757Z,11.10
2017-11-05T04:43:43.328Z,11.10
2017-11-05T04:46:11.054Z,11.00
2017-11-05T04:48:38.639Z,11.00
2017-11-05T04:51:06.985Z,10.90
2017-11-05T04:53:35.376Z,10.90
2017-11-05T04:56:02.962Z,10.90
2017-11-05T04:58:30.543Z,10.90
2017-11-05T05:00:58.273Z,10.90
2017-11-05T05:03:25.857Z,10.90
2017-11-05T05:05:53.444Z,10.90
2017-11-05T05:08:21.086Z,10.90
2017-11-05T05:10:48.765Z,10.80
2017-11-05T05:13:17.109Z,10.80
2017-11-05T05:15:45.530Z,10.90
2017-11-05T05:18:13.109Z,10.90
2017-11-05T05:20:40.693Z,10.80
2017-11-05T05:23:08.328Z,10.80
2017-11-05T05:25:36.678Z,10.80
2017-11-05T05:28:04.331Z,10.80
2017-11-05T05:30:31.949Z,10.80
2017-11-05T05:32:59.574Z,10.80
2017-11-05T05:35:27.233Z,10.80
2017-11-05T05:37:54.956Z,10.70
2017-11-05T05:40:22.541Z,10.80
2017-11-05T05:42:50.142Z,10.80
2017-11-05T05:45:18.496Z,10.80
2017-11-05T05:47:46.149Z,10.70
2017-11-05T05:50:13.724Z,10.70
2017-11-05T05:52:41.525Z,10.80
2017-11-05T05:55:09.122Z,10.70
2017-11-05T05:57:36.717Z,10.70
2017-11-05T06:00:04.345Z,10.70
2017-11-05T06:02:33.096Z,10.70
2017-11-05T06:05:00.677Z,10.70
2017-11-05T06:07:28.406Z,10.70
2017-11-05T06:09:56.744Z,10.70
2017-11-05T06:12:24.329Z,10.70
2017-11-05T06:14:51.981Z,10.70
2017-11-05T06:17:19.560Z,10.60
2017-11-05T06:19:47.150Z,10.60
2017-11-05T06:22:14.818Z,10.70
2017-11-05T06:24:42.467Z,10.70
2017-11-05T06:27:10.073Z,10.70
2017-11-05T06:29:37.709Z,10.60
2017-11-05T06:32:05.326Z,10.60
2017-11-05T06:34:33.687Z,10.60
2017-11-05T06:37:01.393Z,10.60
2017-11-05T06:39:28.976Z,10.60
2017-11-05T06:41:57.317Z,10.60
2017-11-05T06:44:24.965Z,10.60
2017-11-05T06:46:52.543Z,10.60
2017-11-05T06:49:20.116Z,10.60
2017-11-05T06:51:47.749Z,10.60
2017-11-05T06:54:16.100Z,10.60
2017-11-05T06:56:43.680Z,10.60
2017-11-05T06:59:11.314Z,10.60
2017-11-05T07:01:38.904Z,10.60
2017-11-05T07:04:06.493Z,10.60
2017-11-05T07:06:34.220Z,10.60
2017-11-05T07:09:01.820Z,10.60
2017-11-05T07:11:29.430Z,10.60
2017-11-05T07:13:57.072Z,10.60
2017-11-05T07:16:24.661Z,10.60
2017-11-05T07:18:53.021Z,10.60
2017-11-05T07:21:20.761Z,10.60
2017-11-05T07:23:49.122Z,10.60
2017-11-05T07:26:16.702Z,10.60
2017-11-05T07:28:44.490Z,10.60
2017-11-05T07:31:12.107Z,10.60
2017-11-05T07:33:39.701Z,10.60
2017-11-05T07:36:07.536Z,10.60
2017-11-05T07:38:35.925Z,10.60
2017-11-05T07:41:03.545Z,10.60
2017-11-05T07:43:32.178Z,10.60
2017-11-05T07:46:00.535Z,10.60
2017-11-05T07:48:28.128Z,10.60
2017-11-05T07:50:55.789Z,10.60
2017-11-05T07:53:23.384Z,10.70
2017-11-05T07:55:51.732Z,10.70
2017-11-05T07:58:19.393Z,10.70
2017-11-05T08:00:47.067Z,10.70
2017-11-05T08:03:14.665Z,10.70
2017-11-05T08:05:42.970Z,10.70
2017-11-05T08:08:10.567Z,10.70
2017-11-05T08:10:38.927Z,10.70
2017-11-05T08:13:06.582Z,10.70
2017-11-05T08:15:34.175Z,10.80
2017-11-05T08:18:01.775Z,10.80
2017-11-05T08:20:30.181Z,10.80
2017-11-05T08:22:57.762Z,10.80
2017-11-05T08:25:25.342Z,10.80
2017-11-05T08:27:53.016Z,10.80
2017-11-05T08:30:20.617Z,10.80
2017-11-05T08:32:48.191Z,10.80
2017-11-05T08:35:16.023Z,10.80
2017-11-05T08:37:43.617Z,10.80
2017-11-05T08:40:11.196Z,10.80
2017-11-05T08:42:38.830Z,10.80
2017-11-05T08:45:06.429Z,10.80
2017-11-05T08:47:34.005Z,10.80
2017-11-05T08:50:01.648Z,10.80
2017-11-05T08:52:29.224Z,10.80
2017-11-05T08:54:56.803Z,10.90
2017-11-05T08:57:24.497Z,10.90
2017-11-05T08:59:52.856Z,10.90
2017-11-05T09:02:20.441Z,10.90
2017-11-05T09:04:48.081Z,11.00
2017-11-05T09:07:16.513Z,11.10
2017-11-05T09:09:44.096Z,11.10
2017-11-05T09:12:11.747Z,11.20
2017-11-05T09:14:39.330Z,11.20
2017-11-05T09:17:06.909Z,11.20
2017-11-05T09:19:34.556Z,11.30
2017-11-05T09:22:02.138Z,11.30
2017-11-05T09:24:29.733Z,11.30
2017-11-05T09:26:57.512Z,11.30
2017-11-05T09:29:25.147Z,11.30
2017-11-05T09:31:52.740Z,11.20
2017-11-05T09:34:20.413Z,11.20
2017-11-05T09:36:48.011Z,11.20
2017-11-05T09:39:15.592Z,11.30
2017-11-05T09:41:43.376Z,11.20
2017-11-05T09:44:10.956Z,11.20
2017-11-05T09:46:38.560Z,11.30
2017-11-05T09:49:06.176Z,11.30
2017-11-05T09:51:33.762Z,11.30
2017-11-05T09:54:01.349Z,11.30
2017-11-05T09:56:29.933Z,11.30
2017-11-05T09:58:58.301Z,11.30
2017-11-05T10:01:25.889Z,11.30
2017-11-05T10:03:54.434Z,11.30
2017-11-05T10:06:22.027Z,11.40
2017-11-05T10:08:49.605Z,11.40
2017-11-05T10:11:17.242Z,11.50
2017-11-05T10:13:44.830Z,11.50
2017-11-05T10:16:12.413Z,11.60
2017-11-05T10:18:40.052Z,11.70
2017-11-05T10:21:07.633Z,11.70
2017-11-05T10:23:35.427Z,11.90
2017-11-05T10:26:03.070Z,12.00
2017-11-05T10:28:30.649Z,12.10
2017-11-05T10:30:58.226Z,12.20
2017-11-05T10:33:25.856Z,12.20
2017-11-05T10:35:53.449Z,12.10
2017-11-05T10:38:21.808Z,12.00
2017-11-05T10:40:49.447Z,12.00
2017-11-05T10:43:17.037Z,11.90
2017-11-05T10:45:44.633Z,11.80
2017-11-05T10:48:12.262Z,11.70
2017-11-05T10:50:39.940Z,11.70
2017-11-05T10:53:07.521Z,11.70
2017-11-05T10:55:35.329Z,11.60
2017-11-05T10:58:03.745Z,11.70
2017-11-05T11:00:32.097Z,11.70
2017-11-05T11:02:59.721Z,11.70
2017-11-05T11:05:27.296Z,11.70
2017-11-05T11:07:54.869Z,11.70
2017-11-05T11:10:22.500Z,11.70
2017-11-05T11:12:50.129Z,11.70
2017-11-05T11:15:17.716Z,11.80
2017-11-05T11:17:45.377Z,11.80
2017-11-05T11:20:12.958Z,11.90
2017-11-05T11:22:40.625Z,11.90
2017-11-05T11:25:08.256Z,11.90
2017-11-05T11:27:37.093Z,11.90
2017-11-05T11:30:05.252Z,11.90
2017-11-05T11:32:33.754Z,11.80
2017-11-05T11:35:03.095Z,11.80
2017-11-05T11:37:31.589Z,11.80
2017-11-05T11:39:59.208Z,11.90
2017-11-05T11:42:27.554Z,11.90
2017-11-05T11:44:55.153Z,11.90
2017-11-05T11:47:22.881Z,11.90
2017-11-05T11:49:50.508Z,12.20
2017-11-05T11:52:18.099Z,11.90
2017-11-05T11:54:45.772Z,11.90
2017-11-05T11:57:13.384Z,11.90
2017-11-05T11:59:40.965Z,11.90
2017-11-05T12:02:08.751Z,11.90
2017-11-05T12:04:36.325Z,12.00
2017-11-05T12:07:03.905Z,12.00
2017-11-05T12:09:31.666Z,12.10
2017-11-05T12:11:59.261Z,12.10
2017-11-05T12:14:26.835Z,12.10
2017-11-05T12:16:54.473Z,12.10
2017-11-05T12:19:22.050Z,12.10
2017-11-05T12:21:49.634Z,12.10
2017-11-05T12:24:17.261Z,12.10
2017-11-05T12:26:44.834Z,12.10
2017-11-05T12:29:12.488Z,12.20
2017-11-05T12:31:40.868Z,12.10
2017-11-05T12:34:09.204Z,12.10
2017-11-05T12:36:36.794Z,12.10
2017-11-05T12:39:04.440Z,12.10
2017-11-05T12:41:32.029Z,12.10
2017-11-05T12:43:59.649Z,12.10
2017-11-05T12:46:28.244Z,12.10
2017-11-05T12:48:56.587Z,12.10
2017-11-05T12:51:24.184Z,12.10
2017-11-05T12:53:52.800Z,12.10
2017-11-05T12:56:21.149Z,12.10
2017-11-05T12:58:48.721Z,12.10
2017-11-05T13:01:16.346Z,12.00
2017-11-05T13:03:44.706Z,11.90
2017-11-05T13:06:12.292Z,11.90
2017-11-05T13:08:40.676Z,11.90
2017-11-05T13:11:09.028Z,11.90
2017-11-05T13:13:36.605Z,11.80
2017-11-05T13:16:04.236Z,11.80
2017-11-05T13:18:31.817Z,11.90
2017-11-05T13:20:59.408Z,11.80
2017-11-05T13:23:27.144Z,11.80
2017-11-05T13:25:54.771Z,11.80
2017-11-05T13:28:22.357Z,11.80
2017-11-05T13:30:51.504Z,11.70
2017-11-05T13:33:19.871Z,11.70
2017-11-05T13:35:47.501Z,11.70
2017-11-05T13:38:15.128Z,11.60
2017-11-05T13:40:43.467Z,11.60
2017-11-05T13:43:11.051Z,11.60
2017-11-05T13:45:38.687Z,11.60
2017-11-05T13:48:06.622Z,11.50
2017-11-05T13:50:34.219Z,11.60
2017-11-05T13:53:02.624Z,11.60
2017-11-05T13:55:30.214Z,11.50
2017-11-05T13:57:57.891Z,11.50
2017-11-05T14:00:25.520Z,11.50
2017-11-05T14:02:53.861Z,11.40
2017-11-05T14:05:22.144Z,11.40
2017-11-05T14:07:49.959Z,11.40
2017-11-05T14:10:17.536Z,11.40
2017-11-05T14:12:45.877Z,11.30
2017-11-05T14:15:13.504Z,11.30
2017-11-05T14:17:41.946Z,11.30
2017-11-05T14:20:09.541Z,11.30
2017-11-05T14:22:37.160Z,11.30
2017-11-05T14:25:04.736Z,11.20
2017-11-05T14:27:32.312Z,11.20
2017-11-05T14:30:00.053Z,11.10
2017-11-05T14:32:27.637Z,11.20
2017-11-05T14:34:56.012Z,11.10
2017-11-05T14:37:23.788Z,11.10
2017-11-05T14:39:51.372Z,11.00
2017-11-05T14:42:19.709Z,11.00
2017-11-05T14:44:47.395Z,11.00
2017-11-05T14:47:14.982Z,11.00
2017-11-05T14:49:42.582Z,11.00
2017-11-05T14:52:10.977Z,10.90
2017-11-05T14:54:39.335Z,10.80
2017-11-05T14:57:06.909Z,10.80
2017-11-05T14:59:34.523Z,10.80
2017-11-05T15:02:02.873Z,10.70
2017-11-05T15:04:30.443Z,10.70
2017-11-05T15:06:58.059Z,10.70
2017-11-05T15:09:26.391Z,10.70
2017-11-05T15:11:53.961Z,10.60
2017-11-05T15:14:21.589Z,10.60
2017-11-05T15:16:49.943Z,10.50
2017-11-05T15:19:17.524Z,10.50
2017-11-05T15:21:45.177Z,10.40
2017-11-05T15:24:12.744Z,10.40
2017-11-05T15:26:40.321Z,10.40
2017-11-05T15:29:07.943Z,10.30
2017-11-05T15:31:36.272Z,10.30
2017-11-05T15:34:03.846Z,10.30
2017-11-05T15:36:31.485Z,10.30
2017-11-05T15:38:59.073Z,10.30
2017-11-05T15:41:26.664Z,10.30
2017-11-05T15:43:54.291Z,10.20
2017-11-05T15:46:22.625Z,10.20
2017-11-05T15:48:50.200Z,10.20
2017-11-05T15:51:17.829Z,10.20
2017-11-05T15:53:45.453Z,10.20
2017-11-05T15:56:13.029Z,10.20
2017-11-05T15:58:40.653Z,10.20
2017-11-05T16:01:08.333Z,10.20
2017-11-05T16:03:35.901Z,10.20
2017-11-05T16:06:03.521Z,10.20
2017-11-05T16:08:31.089Z,10.10
2017-11-05T16:10:58.657Z,10.10
2017-11-05T16:13:26.286Z,10.10
2017-11-05T16:15:53.856Z,10.10
2017-11-05T16:18:21.456Z,10.00
2017-11-05T16:20:49.078Z,9.90
2017-11-05T16:23:17.532Z,9.90
2017-11-05T16:25:45.092Z,9.90
2017-11-05T16:28:12.900Z,9.80
2017-11-05T16:30:40.473Z,9.80
2017-11-05T16:33:09.549Z,9.60
2017-11-05T16:35:37.162Z,9.60
2017-11-05T16:38:04.735Z,9.60
2017-11-05T16:40:32.353Z,9.60
2017-11-05T16:42:59.965Z,9.60
2017-11-05T16:45:27.543Z,9.60
2017-11-05T16:47:55.127Z,9.60
2017-11-05T16:50:23.517Z,9.60
2017-11-05T16:52:51.846Z,9.70
2017-11-05T16:55:19.413Z,9.70
2017-11-05T16:57:47.032Z,9.70
2017-11-05T17:00:14.608Z,9.70
2017-11-05T17:02:42.176Z,9.70
2017-11-05T17:05:11.491Z,9.60
2017-11-05T17:07:39.827Z,9.60
2017-11-05T17:10:07.407Z,9.60
2017-11-05T17:12:35.017Z,9.60
2017-11-05T17:15:02.593Z,9.60
2017-11-05T17:17:30.197Z,9.70
2017-11-05T17:19:58.048Z,9.60
2017-11-05T17:22:25.611Z,9.70
2017-11-05T17:24:53.177Z,9.60
2017-11-05T17:27:20.963Z,9.60
2017-11-05T17:29:48.532Z,9.60
2017-11-05T17:32:16.105Z,9.50
2017-11-05T17:34:43.832Z,9.50
2017-11-05T17:37:11.513Z,9.50
2017-11-05T17:39:39.078Z,9.40
2017-11-05T17:42:06.803Z,9.40
2017-11-05T17:44:34.376Z,9.40
2017-11-05T17:47:01.976Z,9.40
2017-11-05T17:49:29.598Z,9.30
2017-11-05T17:51:57.184Z,9.30
2017-11-05T17:54:24.759Z,9.20
2017-11-05T17:56:52.393Z,9.20
2017-11-05T17:59:20.063Z,9.20
2017-11-05T18:01:47.741Z,9.10
2017-11-05T18:04:15.370Z,9.10
2017-11-05T18:06:43.705Z,9.10
2017-11-05T18:09:11.375Z,9.10
2017-11-05T18:11:38.993Z,9.10
2017-11-05T18:14:06.565Z,9.00
2017-11-05T18:16:34.134Z,9.00
2017-11-05T18:19:01.904Z,8.90
2017-11-05T18:21:29.470Z,8.80
2017-11-05T18:23:57.046Z,8.80
2017-11-05T18:26:26.173Z,8.70
2017-11-05T18:28:55.047Z,8.60
2017-11-05T18:31:22.922Z,8.60
2017-11-05T18:33:51.207Z,8.60
2017-11-05T18:36:18.788Z,8.50
2017-11-05T18:38:46.972Z,8.50
2017-11-05T18:41:15.161Z,8.40
2017-11-05T18:43:43.163Z,8.30
2017-11-05T18:46:12.359Z,8.30
2017-11-05T18:48:40.969Z,8.20
2017-11-05T18:51:09.135Z,8.20
2017-11-05T18:53:38.443Z,8.20
2017-11-05T18:56:06.646Z,8.10
2017-11-05T18:58:34.921Z,8.10
2017-11-05T19:01:02.967Z,8.10
2017-11-05T19:03:31.189Z,8.10
2017-11-05T19:05:59.142Z,8.00
2017-11-05T19:08:27.150Z,8.00
2017-11-05T19:10:55.448Z,8.00
2017-11-05T19:13:24.962Z,7.90
2017-11-05T19:15:52.850Z,7.90
2017-11-05T19:18:20.470Z,7.90
2017-11-05T19:20:48.507Z,7.90
2017-11-05T19:23:16.604Z,7.80
2017-11-05T19:25:44.766Z,7.70
2017-11-05T19:28:12.752Z,7.70
2017-11-05T19:30:40.731Z,7.70
2017-11-05T19:33:08.909Z,7.60
2017-11-05T19:35:37.302Z,7.60
2017-11-05T19:38:04.866Z,7.60
2017-11-05T19:40:33.065Z,7.60
2017-11-05T19:43:01.139Z,7.60
2017-11-05T19:45:29.068Z,7.60
2017-11-05T19:47:57.935Z,7.50
2017-11-05T19:50:25.904Z,7.50
2017-11-05T19:52:53.879Z,7.50
2017-11-05T19:55:21.514Z,7.50
2017-11-05T19:57:49.089Z,7.40
2017-11-05T20:00:18.382Z,7.40
2017-11-05T20:02:46.530Z,7.40
2017-11-05T20:05:14.515Z,7.40
2017-11-05T20:07:42.809Z,7.30
2017-11-05T20:10:11.078Z,7.40
2017-11-05T20:12:39.180Z,7.40
2017-11-05T20:15:07.471Z,7.40
2017-11-05T20:17:35.574Z,7.50
2017-11-05T20:20:03.633Z,7.40
2017-11-05T20:22:31.621Z,7.40
2017-11-05T20:25:00.035Z,7.30
2017-11-05T20:27:28.891Z,7.20
2017-11-05T20:29:56.815Z,7.10
2017-11-05T20:32:27.403Z,7.00
2017-11-05T20:34:55.386Z,7.00
2017-11-05T20:37:23.329Z,7.00
2017-11-05T20:39:52.768Z,6.90
2017-11-05T20:42:20.969Z,6.90
2017-11-05T20:44:48.871Z,6.80
2017-11-05T20:47:18.497Z,6.80
2017-11-05T20:49:46.165Z,6.70
2017-11-05T20:52:14.093Z,6.70
2017-11-05T20:54:42.520Z,6.60
2017-11-05T20:57:10.620Z,6.60
2017-11-05T20:59:38.713Z,6.60
2017-11-05T21:02:06.783Z,6.60
2017-11-05T21:04:34.763Z,6.60
2017-11-05T21:07:03.266Z,6.50
2017-11-05T21:09:31.544Z,6.50
2017-11-05T21:11:59.519Z,6.50
2017-11-05T21:14:27.594Z,6.40
2017-11-05T21:16:55.779Z,6.40
2017-11-05T21:19:23.772Z,6.40
2017-11-05T21:21:51.368Z,6.40
2017-11-05T21:24:18.992Z,6.40
2017-11-05T21:26:47.107Z,6.40
2017-11-05T21:29:15.182Z,6.40
2017-11-05T21:31:43.394Z,6.40
2017-11-05T21:34:13.084Z,6.40
2017-11-05T21:36:41.153Z,6.40
2017-11-05T21:39:09.257Z,6.40
2017-11-05T21:41:37.239Z,6.40
2017-11-05T21:44:05.217Z,6.40
2017-11-05T21:46:33.395Z,6.40
2017-11-05T21:49:01.499Z,6.30
2017-11-05T21:51:29.476Z,6.30
2017-11-05T21:53:58.582Z,6.30
2017-11-05T21:56:26.675Z,6.30
2017-11-05T21:58:55.593Z,6.30
2017-11-05T22:01:24.576Z,6.20
2017-11-05T22:03:52.143Z,6.20
2017-11-05T22:06:19.724Z,6.20
2017-11-05T22:08:47.338Z,6.20
2017-11-05T22:11:14.908Z,6.20
2017-11-05T22:13:42.493Z,6.20
2017-11-05T22:16:10.101Z,6.20
2017-11-05T22:18:37.669Z,6.20
2017-11-05T22:21:05.232Z,6.20
2017-11-05T22:23:32.986Z,6.10
2017-11-05T22:26:00.544Z,6.10
2017-11-05T22:28:28.115Z,6.10
2017-11-05T22:30:55.732Z,6.10
2017-11-05T22:33:23.296Z,6.10
2017-11-05T22:35:50.852Z,6.00
2017-11-05T22:38:18.573Z,6.10
2017-11-05T22:40:46.138Z,6.10
2017-11-05T22:43:13.700Z,6.10
2017-11-05T22:45:41.427Z,6.00
2017-11-05T22:48:08.992Z,6.00
2017-11-05T22:50:36.569Z,6.00
2017-11-05T22:53:04.188Z,6.00
2017-11-05T22:55:31.757Z,6.00
2017-11-05T22:57:59.326Z,5.90
2017-11-05T23:00:26.938Z,5.90
2017-11-05T23:02:55.288Z,5.90
2017-11-05T23:05:22.849Z,5.90
2017-11-05T23:07:50.598Z,5.80
2017-11-05T23:10:18.171Z,5.80
2017-11-05T23:12:45.736Z,5.70
2017-11-05T23:15:13.353Z,5.70
2017-11-05T23:17:40.916Z,5.70
2017-11-05T23:20:08.481Z,5.60
2017-11-05T23:22:36.200Z,5.60
2017-11-05T23:25:04.528Z,5.60
2017-11-05T23:27:32.093Z,5.60
2017-11-05T23:29:59.714Z,5.60
2017-11-05T23:32:27.339Z,5.50
2017-11-05T23:34:54.906Z,5.50
2017-11-05T23:37:22.529Z,5.50
2017-11-05T23:39:50.097Z,5.40
2017-11-05T23:42:17.667Z,5.40
2017-11-05T23:44:45.437Z,5.40
2017-11-05T23:47:13.003Z,5.40
2017-11-05T23:49:40.580Z,5.40
2017-11-05T23:52:08.202Z,5.30
2017-11-05T23:54:35.760Z,5.30
2017-11-05T23:57:04.088Z,5.30
2017-11-05T23:59:31.705Z,5.30
